Time;durP1;ratioP1;P1;durP2;ratioP2;P2;SDS_P1;SDS_P2;PMS_P1;PMS_P2;Temp;Humidity;BMP_temperature;BMP_pressure;BME280_temperature;BME280_humidity;BME280_pressure;Samples;Min_cycle;Max_cycle;Signal;HPM_P1;HPM_P2
2023/12/11 00:01:20;;;;;;;1.30;1.10;;;21.90;59.60;;;;;;5061708;28;20453;-70
2023/12/11 00:03:49;;;;;;;2.27;1.43;;;21.80;59.50;;;;;;5059692;28;20494;-69
2023/12/11 00:06:17;;;;;;;2.10;1.40;;;21.80;59.50;;;;;;5074593;28;20490;-70
2023/12/11 00:08:45;;;;;;;1.93;1.43;;;21.80;59.50;;;;;;5068186;28;20473;-70
2023/12/11 00:11:14;;;;;;;1.43;1.00;;;21.80;59.60;;;;;;5068114;28;20461;-69
2023/12/11 00:13:42;;;;;;;2.77;1.50;;;21.80;59.60;;;;;;5064767;28;20450;-69
2023/12/11 00:16:11;;;;;;;3.03;1.23;;;21.80;59.50;;;;;;5063063;28;20454;-71
2023/12/11 00:18:40;;;;;;;1.70;1.57;;;21.80;59.40;;;;;;5072051;28;20480;-69
2023/12/11 00:21:09;;;;;;;2.13;1.10;;;21.80;59.50;;;;;;5062545;28;20500;-72
2023/12/11 00:23:37;;;;;;;2.97;1.40;;;21.80;59.40;;;;;;5066284;28;20474;-70
2023/12/11 00:26:06;;;;;;;2.33;1.30;;;21.80;59.50;;;;;;5063956;28;20457;-69
2023/12/11 00:28:34;;;;;;;2.13;1.13;;;21.80;59.50;;;;;;5074915;28;20540;-69
2023/12/11 00:31:07;;;;;;;3.40;1.27;;;21.80;59.50;;;;;;5081358;28;20461;-70
2023/12/11 00:33:41;;;;;;;2.40;1.30;;;21.80;59.50;;;;;;5076376;28;20514;-71
2023/12/11 00:36:10;;;;;;;2.43;1.43;;;21.70;59.30;;;;;;5064422;28;20492;-69
2023/12/11 00:38:39;;;;;;;1.67;1.40;;;21.70;59.30;;;;;;5066828;28;20959;-69
2023/12/11 00:41:08;;;;;;;1.73;1.63;;;21.70;59.40;;;;;;5062680;28;20482;-71
2023/12/11 00:43:36;;;;;;;1.70;1.20;;;21.70;59.30;;;;;;5080716;28;20470;-69
2023/12/11 00:46:14;;;;;;;4.13;1.17;;;21.70;59.30;;;;;;5067983;28;20441;-70
2023/12/11 00:48:44;;;;;;;3.17;1.70;;;21.70;59.30;;;;;;5062880;28;20442;-69
2023/12/11 00:51:17;;;;;;;1.20;1.10;;;21.70;59.30;;;;;;5063080;28;20450;-69
2023/12/11 00:53:45;;;;;;;2.30;1.53;;;21.70;59.30;;;;;;5070050;28;20936;-68
2023/12/11 00:56:14;;;;;;;1.90;1.40;;;21.70;59.30;;;;;;5064232;28;20455;-72
2023/12/11 00:58:42;;;;;;;1.40;1.23;;;21.70;59.30;;;;;;5061719;28;20482;-69
2023/12/11 01:01:11;;;;;;;2.00;1.30;;;21.70;59.30;;;;;;5067271;28;20496;-71
2023/12/11 01:03:39;;;;;;;1.03;0.97;;;21.70;59.40;;;;;;5066681;28;20494;-70
2023/12/11 01:06:09;;;;;;;1.63;1.53;;;21.60;59.40;;;;;;5077700;28;20456;-70
2023/12/11 01:08:39;;;;;;;2.80;1.63;;;21.60;59.40;;;;;;5062046;28;20456;-69
2023/12/11 01:11:08;;;;;;;4.00;1.20;;;21.60;59.40;;;;;;5060821;28;20462;-72
2023/12/11 01:13:37;;;;;;;1.07;0.90;;;21.60;59.40;;;;;;5069496;28;20459;-69
2023/12/11 01:16:06;;;;;;;4.23;1.50;;;21.60;59.40;;;;;;5066450;28;20560;-69
2023/12/11 01:18:35;;;;;;;1.83;1.10;;;21.60;59.50;;;;;;5064587;28;20474;-69
2023/12/11 01:21:04;;;;;;;1.57;1.23;;;21.60;59.40;;;;;;5078680;28;20449;-69
2023/12/11 01:23:34;;;;;;;1.43;1.17;;;21.60;59.40;;;;;;5085220;28;21010;-69
2023/12/11 01:26:02;;;;;;;2.03;1.10;;;21.60;59.40;;;;;;5075153;28;20502;-68
2023/12/11 01:28:31;;;;;;;1.73;1.23;;;21.60;59.40;;;;;;5069427;28;20911;-71
2023/12/11 01:30:59;;;;;;;1.40;1.07;;;21.60;59.40;;;;;;5068517;28;20807;-68
2023/12/11 01:33:27;;;;;;;1.83;1.47;;;21.60;59.40;;;;;;5069039;28;20460;-69
2023/12/11 01:35:56;;;;;;;1.30;1.00;;;21.50;59.40;;;;;;5065985;28;21002;-68
2023/12/11 01:38:24;;;;;;;2.20;1.50;;;21.50;59.40;;;;;;5069114;28;20805;-69
2023/12/11 01:40:54;;;;;;;1.43;1.20;;;21.50;59.40;;;;;;5070521;28;20465;-69
2023/12/11 01:43:22;;;;;;;2.17;1.00;;;21.50;59.40;;;;;;5069421;28;20513;-69
2023/12/11 01:46:04;;;;;;;1.90;1.53;;;21.50;59.40;;;;;;5081552;28;20450;-70
2023/12/11 01:48:32;;;;;;;0.83;0.83;;;21.50;59.40;;;;;;5068195;28;20453;-69
2023/12/11 01:51:02;;;;;;;2.17;1.80;;;21.50;59.40;;;;;;5069150;28;20461;-71
2023/12/11 01:53:32;;;;;;;1.57;1.47;;;21.50;59.40;;;;;;5067766;28;20446;-70
2023/12/11 01:56:02;;;;;;;1.70;1.60;;;21.50;59.40;;;;;;5070211;28;20464;-69
2023/12/11 01:58:31;;;;;;;2.50;1.30;;;21.50;59.30;;;;;;5067520;28;20477;-69
2023/12/11 02:01:00;;;;;;;1.63;1.23;;;21.50;59.30;;;;;;5068492;28;20449;-69
2023/12/11 02:03:28;;;;;;;1.27;1.00;;;21.50;59.30;;;;;;5067067;28;21063;-69
2023/12/11 02:05:57;;;;;;;1.13;1.03;;;21.50;59.30;;;;;;5073466;28;20448;-69
2023/12/11 02:08:25;;;;;;;1.80;1.20;;;21.50;59.30;;;;;;5073685;28;20509;-69
2023/12/11 02:10:54;;;;;;;1.80;1.40;;;21.40;59.30;;;;;;5083695;28;20451;-69
2023/12/11 02:13:24;;;;;;;1.20;1.07;;;21.40;59.30;;;;;;5082789;28;20452;-69
2023/12/11 02:15:53;;;;;;;1.87;1.33;;;21.40;59.30;;;;;;5085050;28;20447;-69
2023/12/11 02:18:21;;;;;;;1.87;1.60;;;21.40;59.30;;;;;;5074304;28;20964;-69
2023/12/11 02:20:50;;;;;;;2.00;1.50;;;21.40;59.30;;;;;;5070328;28;20517;-69
2023/12/11 02:23:26;;;;;;;1.47;1.00;;;21.40;59.30;;;;;;5069494;28;20467;-69
2023/12/11 02:26:04;;;;;;;1.33;1.20;;;21.40;59.30;;;;;;5069648;28;20452;-69
2023/12/11 02:28:32;;;;;;;2.50;1.70;;;21.40;59.30;;;;;;5066240;28;20855;-69
2023/12/11 02:31:01;;;;;;;1.30;1.13;;;21.40;59.30;;;;;;5069854;28;20465;-71
2023/12/11 02:33:29;;;;;;;2.30;1.13;;;21.40;59.30;;;;;;5068383;28;20535;-69
2023/12/11 02:35:58;;;;;;;1.10;0.90;;;21.40;59.20;;;;;;5067551;28;21003;-69
2023/12/11 02:38:26;;;;;;;1.30;1.00;;;21.40;59.30;;;;;;5100604;28;20440;-69
2023/12/11 02:40:56;;;;;;;2.20;1.00;;;21.40;59.30;;;;;;5069477;28;20440;-69
2023/12/11 02:43:26;;;;;;;1.80;1.10;;;21.40;59.30;;;;;;5071845;28;20457;-69
2023/12/11 02:45:54;;;;;;;2.23;1.53;;;21.40;59.30;;;;;;5074041;28;20463;-69
2023/12/11 02:48:23;;;;;;;1.10;0.90;;;21.40;59.30;;;;;;5071851;28;20992;-69
2023/12/11 02:50:51;;;;;;;1.50;1.40;;;21.30;59.30;;;;;;5071234;28;20947;-69
2023/12/11 02:53:19;;;;;;;1.47;1.20;;;21.30;59.20;;;;;;5072917;28;20452;-69
2023/12/11 02:55:47;;;;;;;1.40;1.10;;;21.30;59.30;;;;;;5075107;28;20516;-69
2023/12/11 02:58:16;;;;;;;1.00;0.90;;;21.30;59.20;;;;;;5079105;28;20955;-69
2023/12/11 03:00:45;;;;;;;2.03;1.30;;;21.30;59.30;;;;;;5079029;28;20486;-69
2023/12/11 03:03:14;;;;;;;1.43;1.20;;;21.30;59.30;;;;;;5069646;28;20489;-68
2023/12/11 03:05:42;;;;;;;1.00;0.77;;;21.30;59.30;;;;;;5073492;28;20453;-71
2023/12/11 03:08:10;;;;;;;1.10;1.00;;;21.30;59.30;;;;;;5061935;28;21026;-70
2023/12/11 03:10:39;;;;;;;1.37;1.27;;;21.30;59.20;;;;;;5075698;28;20848;-70
2023/12/11 03:13:07;;;;;;;1.10;0.97;;;21.30;59.20;;;;;;5075552;28;20465;-69
2023/12/11 03:15:35;;;;;;;1.30;1.10;;;21.30;59.20;;;;;;5072330;28;20460;-69
2023/12/11 03:18:05;;;;;;;1.23;1.00;;;21.30;59.20;;;;;;5070924;28;20453;-69
2023/12/11 03:20:34;;;;;;;1.60;1.30;;;21.30;59.20;;;;;;5074444;28;20469;-69
2023/12/11 03:23:02;;;;;;;0.80;0.80;;;21.30;59.20;;;;;;5082148;28;20471;-68
2023/12/11 03:25:30;;;;;;;0.70;0.70;;;21.30;59.20;;;;;;5071418;28;20929;-68
2023/12/11 03:27:57;;;;;;;1.17;1.00;;;21.30;59.20;;;;;;5072473;28;21048;-70
2023/12/11 03:30:26;;;;;;;1.63;1.27;;;21.30;59.10;;;;;;5070266;28;20464;-68
2023/12/11 03:32:54;;;;;;;1.03;0.93;;;21.30;59.10;;;;;;5070418;28;20455;-68
2023/12/11 03:35:24;;;;;;;1.20;1.10;;;21.30;59.00;;;;;;5072515;28;20516;-68
2023/12/11 03:37:52;;;;;;;1.23;0.97;;;21.30;59.00;;;;;;5072256;28;20440;-68
2023/12/11 03:40:21;;;;;;;1.20;0.90;;;21.30;59.00;;;;;;5068508;28;20672;-70
2023/12/11 03:42:49;;;;;;;1.47;1.00;;;21.30;59.00;;;;;;5072702;28;20433;-70
2023/12/11 03:45:17;;;;;;;1.17;1.07;;;21.30;59.00;;;;;;5071461;28;20550;-69
2023/12/11 03:47:45;;;;;;;1.10;1.00;;;21.30;59.10;;;;;;5072174;28;20454;-72
2023/12/11 03:50:14;;;;;;;2.40;0.83;;;21.30;59.00;;;;;;5066960;28;20533;-69
2023/12/11 03:52:44;;;;;;;1.20;0.90;;;21.30;59.00;;;;;;5071421;28;20452;-69
2023/12/11 03:55:12;;;;;;;1.43;1.17;;;21.30;59.00;;;;;;5073049;28;20468;-68
2023/12/11 03:57:41;;;;;;;0.70;0.70;;;21.30;58.90;;;;;;5067820;28;20460;-69
2023/12/11 04:00:10;;;;;;;1.27;1.00;;;21.30;59.00;;;;;;5073554;28;20491;-69
2023/12/11 04:02:38;;;;;;;1.07;0.90;;;21.30;58.90;;;;;;5070175;28;20827;-70
2023/12/11 04:05:10;;;;;;;0.80;0.70;;;21.30;59.00;;;;;;5070598;28;20477;-69
2023/12/11 04:07:38;;;;;;;0.80;0.63;;;21.20;58.90;;;;;;5071758;28;20444;-68
2023/12/11 04:10:09;;;;;;;0.77;0.77;;;21.30;58.90;;;;;;5071458;28;20457;-69
2023/12/11 04:12:38;;;;;;;0.80;0.80;;;21.20;59.00;;;;;;5070867;28;20560;-69
2023/12/11 04:15:07;;;;;;;1.00;0.90;;;21.30;58.90;;;;;;5069462;28;20873;-69
2023/12/11 04:17:36;;;;;;;0.97;0.83;;;21.20;58.90;;;;;;5067137;28;20451;-69
2023/12/11 04:20:05;;;;;;;1.77;1.10;;;21.20;59.00;;;;;;5075954;28;20469;-70
2023/12/11 04:22:34;;;;;;;1.53;0.80;;;21.20;58.90;;;;;;5076805;28;20467;-68
2023/12/11 04:25:02;;;;;;;1.33;1.00;;;21.20;58.80;;;;;;5083568;28;20443;-70
2023/12/11 04:27:32;;;;;;;0.80;0.80;;;21.20;58.80;;;;;;5071576;28;20464;-70
2023/12/11 04:30:00;;;;;;;0.63;0.63;;;21.20;58.80;;;;;;5072637;28;20502;-70
2023/12/11 04:32:29;;;;;;;1.20;0.70;;;21.20;58.80;;;;;;5073874;28;20458;-70
2023/12/11 04:34:57;;;;;;;0.97;0.70;;;21.20;58.80;;;;;;5071038;28;20507;-69
2023/12/11 04:37:25;;;;;;;0.73;0.73;;;21.20;58.80;;;;;;5067598;28;20456;-71
2023/12/11 04:39:54;;;;;;;0.80;0.80;;;21.20;58.90;;;;;;5068865;28;20518;-68
2023/12/11 04:42:22;;;;;;;0.70;0.70;;;21.20;58.80;;;;;;5070492;28;20784;-69
2023/12/11 04:44:52;;;;;;;0.70;0.60;;;21.20;58.80;;;;;;5069874;28;20483;-69
2023/12/11 04:47:20;;;;;;;1.20;0.77;;;21.20;58.80;;;;;;5068880;28;20514;-69
2023/12/11 04:49:49;;;;;;;0.80;0.80;;;21.20;58.80;;;;;;5070285;28;20525;-69
2023/12/11 04:52:17;;;;;;;0.60;0.60;;;21.20;58.80;;;;;;5069301;28;20840;-69
2023/12/11 04:54:46;;;;;;;0.70;0.70;;;21.20;58.90;;;;;;5073903;28;20951;-68
2023/12/11 04:57:15;;;;;;;0.90;0.70;;;21.20;58.80;;;;;;5069949;28;20549;-68
2023/12/11 04:59:43;;;;;;;0.63;0.60;;;21.20;58.80;;;;;;5071727;28;20509;-68
2023/12/11 05:02:13;;;;;;;1.10;1.00;;;21.20;58.90;;;;;;5069876;28;20471;-68
2023/12/11 05:04:41;;;;;;;1.10;0.90;;;21.20;58.80;;;;;;5070276;28;20993;-68
2023/12/11 05:07:09;;;;;;;0.50;0.50;;;21.20;58.80;;;;;;5070197;28;20801;-70
2023/12/11 05:09:38;;;;;;;0.73;0.53;;;21.20;58.80;;;;;;5069902;28;20536;-68
2023/12/11 05:12:07;;;;;;;0.50;0.50;;;21.20;58.70;;;;;;5070611;28;20522;-67
2023/12/11 05:14:35;;;;;;;1.07;0.70;;;21.30;58.70;;;;;;5068828;28;20932;-68
2023/12/11 05:17:04;;;;;;;0.83;0.67;;;21.30;58.70;;;;;;5075210;28;20456;-68
2023/12/11 05:19:35;;;;;;;0.70;0.70;;;21.40;58.60;;;;;;5073829;28;20453;-69
2023/12/11 05:22:04;;;;;;;1.17;0.77;;;21.40;58.50;;;;;;5070297;28;20477;-68
2023/12/11 05:24:33;;;;;;;0.87;0.70;;;21.40;58.50;;;;;;5072901;28;20462;-68
2023/12/11 05:27:01;;;;;;;0.50;0.50;;;21.50;58.40;;;;;;5069784;28;20483;-70
2023/12/11 05:29:29;;;;;;;0.50;0.50;;;21.50;58.30;;;;;;5069288;28;20456;-68
2023/12/11 05:31:57;;;;;;;1.17;0.60;;;21.60;58.30;;;;;;5063475;28;20459;-68
2023/12/11 05:34:26;;;;;;;0.60;0.60;;;21.60;58.20;;;;;;5082132;28;20497;-68
2023/12/11 05:36:55;;;;;;;0.63;0.63;;;21.60;58.20;;;;;;5071190;28;20988;-68
2023/12/11 05:39:24;;;;;;;0.80;0.80;;;21.70;58.00;;;;;;5069198;28;20544;-68
2023/12/11 05:41:52;;;;;;;0.70;0.70;;;21.70;58.00;;;;;;5069270;28;20468;-68
2023/12/11 05:44:20;;;;;;;0.80;0.60;;;21.80;57.90;;;;;;5070048;28;20458;-69
2023/12/11 05:46:49;;;;;;;0.90;0.90;;;21.80;57.90;;;;;;5067518;28;20470;-69
2023/12/11 05:49:17;;;;;;;1.07;0.60;;;21.90;57.90;;;;;;5069820;28;21150;-69
2023/12/11 05:51:46;;;;;;;1.07;0.97;;;22.00;57.80;;;;;;5061993;28;20556;-69
2023/12/11 05:54:16;;;;;;;0.77;0.77;;;22.00;57.80;;;;;;5063799;28;20548;-71
2023/12/11 05:56:44;;;;;;;0.90;0.90;;;22.00;57.80;;;;;;5066214;28;20454;-68
2023/12/11 05:59:12;;;;;;;0.70;0.60;;;22.10;57.90;;;;;;5068494;28;20450;-68
2023/12/11 06:01:41;;;;;;;0.50;0.50;;;22.10;58.00;;;;;;5065298;28;20484;-70
2023/12/11 06:04:09;;;;;;;0.70;0.70;;;22.20;58.10;;;;;;5069116;28;20485;-68
2023/12/11 06:06:37;;;;;;;0.80;0.67;;;22.20;58.20;;;;;;5064172;28;20539;-68
2023/12/11 06:09:06;;;;;;;1.90;0.50;;;22.30;58.20;;;;;;5071871;28;20453;-68
2023/12/11 06:11:35;;;;;;;0.97;0.60;;;22.30;58.20;;;;;;5076668;28;20453;-70
2023/12/11 06:14:03;;;;;;;0.60;0.60;;;22.30;58.30;;;;;;5068661;28;20446;-69
2023/12/11 06:16:31;;;;;;;0.70;0.60;;;22.30;58.30;;;;;;5072258;28;20460;-69
2023/12/11 06:18:59;;;;;;;0.73;0.60;;;22.30;58.30;;;;;;5083810;28;20448;-69
2023/12/11 06:21:28;;;;;;;0.57;0.57;;;22.30;58.40;;;;;;5077289;28;20477;-69
2023/12/11 06:23:56;;;;;;;0.60;0.60;;;22.20;58.40;;;;;;5081123;28;20811;-70
2023/12/11 06:26:29;;;;;;;2.13;1.13;;;22.20;58.50;;;;;;5073588;28;20665;-69
2023/12/11 06:29:00;;;;;;;2.53;0.70;;;22.20;58.50;;;;;;5067554;28;20880;-69
2023/12/11 06:31:30;;;;;;;0.70;0.60;;;22.20;58.60;;;;;;5069540;28;20462;-69
2023/12/11 06:33:58;;;;;;;0.77;0.70;;;22.10;58.60;;;;;;5073972;28;20448;-69
2023/12/11 06:36:28;;;;;;;0.80;0.50;;;22.10;58.70;;;;;;5076260;28;20499;-69
2023/12/11 06:38:57;;;;;;;1.53;1.17;;;22.10;58.70;;;;;;5078231;28;20467;-69
2023/12/11 06:41:25;;;;;;;1.30;0.80;;;22.10;58.80;;;;;;5070505;28;20468;-68
2023/12/11 06:43:57;;;;;;;1.10;0.60;;;22.00;58.80;;;;;;5072850;28;20453;-69
2023/12/11 06:46:29;;;;;;;2.53;0.70;;;22.00;58.90;;;;;;5068480;28;20523;-69
2023/12/11 06:48:58;;;;;;;1.47;0.80;;;22.00;58.90;;;;;;5075031;28;20461;-70
2023/12/11 06:51:29;;;;;;;0.70;0.60;;;22.00;59.00;;;;;;5073761;28;20445;-70
2023/12/11 06:53:59;;;;;;;1.90;0.67;;;22.00;59.00;;;;;;5072877;28;20807;-69
2023/12/11 06:56:30;;;;;;;1.30;0.93;;;22.00;59.00;;;;;;5075147;28;20545;-69
2023/12/11 06:59:00;;;;;;;1.37;0.77;;;22.00;59.10;;;;;;5078100;28;20464;-70
2023/12/11 07:01:31;;;;;;;1.10;0.80;;;22.00;59.10;;;;;;5078608;28;20472;-70
2023/12/11 07:03:59;;;;;;;2.10;1.40;;;22.00;59.10;;;;;;5071100;28;20491;-71
2023/12/11 07:06:28;;;;;;;1.57;1.17;;;22.00;59.20;;;;;;5076513;28;20934;-69
2023/12/11 07:08:57;;;;;;;2.03;1.43;;;22.10;59.50;;;;;;5078706;28;20956;-68
2023/12/11 07:11:25;;;;;;;4.57;1.50;;;22.10;59.70;;;;;;5077401;28;20461;-69
2023/12/11 07:13:54;;;;;;;5.00;1.80;;;22.10;60.00;;;;;;5075079;28;20457;-68
2023/12/11 07:16:24;;;;;;;4.13;2.20;;;22.10;60.30;;;;;;5069639;28;20446;-70
2023/12/11 07:18:54;;;;;;;5.90;2.00;;;22.10;60.60;;;;;;5072196;28;20484;-69
2023/12/11 07:21:22;;;;;;;5.53;2.33;;;22.20;60.90;;;;;;5074107;28;20512;-70
2023/12/11 07:23:51;;;;;;;3.93;2.10;;;22.20;61.10;;;;;;5069666;28;20457;-71
2023/12/11 07:26:20;;;;;;;4.33;2.13;;;22.20;61.20;;;;;;5071028;28;20458;-67
2023/12/11 07:28:48;;;;;;;4.93;1.80;;;22.20;61.40;;;;;;5069304;28;20442;-68
2023/12/11 07:31:17;;;;;;;8.07;2.13;;;22.30;61.40;;;;;;5068237;28;20462;-68
2023/12/11 07:33:45;;;;;;;6.90;2.07;;;22.30;61.50;;;;;;5071082;28;20466;-69
2023/12/11 07:36:15;;;;;;;12.23;2.97;;;22.30;61.50;;;;;;5069191;28;20446;-69
2023/12/11 07:38:43;;;;;;;6.40;2.23;;;22.30;61.50;;;;;;5067739;28;20449;-70
2023/12/11 07:41:12;;;;;;;5.83;2.77;;;22.30;61.50;;;;;;5069245;28;20450;-69
2023/12/11 07:43:41;;;;;;;9.10;2.90;;;22.40;61.40;;;;;;5068958;28;20455;-71
2023/12/11 07:46:16;;;;;;;3.53;2.20;;;22.30;61.40;;;;;;5068407;28;21026;-69
2023/12/11 07:48:44;;;;;;;6.00;1.97;;;22.40;61.40;;;;;;5068186;28;20453;-68
2023/12/11 07:51:19;;;;;;;6.17;2.37;;;22.30;61.30;;;;;;5067088;28;20793;-69
2023/12/11 07:53:48;;;;;;;7.23;2.60;;;22.30;61.30;;;;;;5068652;28;20452;-68
2023/12/11 07:56:20;;;;;;;6.57;2.50;;;22.30;61.30;;;;;;5067252;28;20811;-67
2023/12/11 07:58:48;;;;;;;4.67;1.67;;;22.20;61.20;;;;;;5067327;28;20453;-70
2023/12/11 08:01:17;;;;;;;3.60;1.40;;;22.20;61.20;;;;;;5070063;28;20468;-70
2023/12/11 08:03:46;;;;;;;14.97;2.60;;;22.20;61.10;;;;;;5075117;28;20519;-69
2023/12/11 08:06:14;;;;;;;4.10;2.00;;;22.20;61.10;;;;;;5075392;28;20448;-72
2023/12/11 08:08:44;;;;;;;10.60;2.33;;;22.20;61.10;;;;;;5066393;28;20500;-69
2023/12/11 08:11:17;;;;;;;8.40;1.80;;;22.20;61.10;;;;;;5069006;28;20445;-69
2023/12/11 08:13:45;;;;;;;5.70;1.70;;;22.20;61.00;;;;;;5070873;28;20566;-71
2023/12/11 08:16:15;;;;;;;7.47;1.83;;;22.10;61.00;;;;;;5070807;28;20461;-71
2023/12/11 08:18:44;;;;;;;3.27;1.70;;;22.10;61.10;;;;;;5077893;28;20495;-70
2023/12/11 08:21:13;;;;;;;2.20;1.33;;;22.10;61.00;;;;;;5077659;28;21003;-69
2023/12/11 08:23:44;;;;;;;9.20;4.13;;;22.10;61.00;;;;;;5083356;28;20850;-69
2023/12/11 08:26:16;;;;;;;4.77;2.67;;;22.10;61.00;;;;;;5079228;28;20431;-69
2023/12/11 08:28:45;;;;;;;4.37;2.00;;;22.10;60.90;;;;;;5081143;28;20525;-69
2023/12/11 08:31:13;;;;;;;5.17;1.70;;;22.10;60.90;;;;;;5070960;28;20663;-70
2023/12/11 08:33:42;;;;;;;2.60;2.40;;;22.10;60.90;;;;;;5063067;28;20445;-70
2023/12/11 08:36:11;;;;;;;2.60;1.50;;;22.10;60.80;;;;;;5066762;28;20842;-68
2023/12/11 08:38:39;;;;;;;5.70;1.90;;;22.20;60.80;;;;;;5072794;28;20445;-69
2023/12/11 08:41:09;;;;;;;2.60;1.43;;;22.20;60.70;;;;;;5072335;28;20454;-69
2023/12/11 08:43:37;;;;;;;6.47;1.90;;;22.20;60.60;;;;;;5070100;28;20470;-70
2023/12/11 08:46:06;;;;;;;3.17;1.93;;;22.20;60.60;;;;;;5071713;28;20433;-71
2023/12/11 08:48:34;;;;;;;4.20;2.10;;;22.20;60.60;;;;;;5070417;28;20834;-69
2023/12/11 08:51:03;;;;;;;5.20;1.80;;;22.20;60.60;;;;;;5067781;28;20453;-69
2023/12/11 08:53:32;;;;;;;2.60;1.87;;;22.20;60.70;;;;;;5103042;27;20457;-71
2023/12/11 08:56:01;;;;;;;7.57;2.20;;;22.20;60.90;;;;;;5071535;28;20455;-68
2023/12/11 08:58:31;;;;;;;3.10;1.30;;;22.20;61.10;;;;;;5071551;28;20445;-67
2023/12/11 09:00:59;;;;;;;3.03;1.30;;;22.20;61.20;;;;;;5065191;28;20918;-68
2023/12/11 09:03:27;;;;;;;3.93;1.20;;;22.30;61.50;;;;;;5077051;28;21055;-67
2023/12/11 09:05:56;;;;;;;5.20;1.63;;;22.30;61.90;;;;;;5080873;28;20472;-68
2023/12/11 09:08:26;;;;;;;3.70;1.30;;;22.30;62.20;;;;;;5084788;28;20450;-66
2023/12/11 09:10:54;;;;;;;3.77;1.60;;;22.40;62.40;;;;;;5074075;28;21027;-69
2023/12/11 09:13:23;;;;;;;2.40;1.93;;;22.40;62.60;;;;;;5072235;28;20454;-67
2023/12/11 09:15:58;;;;;;;7.97;2.37;;;22.40;62.60;;;;;;5072791;28;20560;-68
2023/12/11 09:18:26;;;;;;;6.80;3.50;;;22.50;62.80;;;;;;5070940;28;20438;-69
2023/12/11 09:20:55;;;;;;;3.87;1.53;;;22.50;62.80;;;;;;5070354;28;20465;-68
2023/12/11 09:23:23;;;;;;;3.20;2.07;;;22.50;62.90;;;;;;5076229;28;21027;-67
2023/12/11 09:25:52;;;;;;;5.30;1.80;;;22.50;62.90;;;;;;5075427;28;20467;-68
2023/12/11 09:28:20;;;;;;;1.80;1.60;;;22.50;63.10;;;;;;5069655;28;20449;-67
2023/12/11 09:30:49;;;;;;;1.77;1.60;;;22.60;63.10;;;;;;5076654;28;20460;-67
2023/12/11 09:33:19;;;;;;;4.33;1.40;;;22.50;63.10;;;;;;5087339;28;20449;-67
2023/12/11 09:35:47;;;;;;;2.03;1.00;;;22.50;63.10;;;;;;5077793;28;20530;-69
2023/12/11 09:38:16;;;;;;;2.13;1.33;;;22.50;63.10;;;;;;5074992;28;20453;-67
2023/12/11 09:40:44;;;;;;;2.80;1.73;;;22.50;63.10;;;;;;5073390;28;20527;-66
2023/12/11 09:43:13;;;;;;;5.50;1.57;;;22.50;63.10;;;;;;5077793;28;20473;-68
2023/12/11 09:45:44;;;;;;;2.47;1.77;;;22.50;63.10;;;;;;5081570;28;20442;-67
2023/12/11 09:48:12;;;;;;;2.50;1.73;;;22.50;63.10;;;;;;5068683;28;20536;-69
2023/12/11 09:50:45;;;;;;;1.80;1.43;;;22.50;63.10;;;;;;5082308;28;20453;-69
2023/12/11 09:53:14;;;;;;;2.53;1.60;;;22.50;63.10;;;;;;5085314;28;20511;-68
2023/12/11 09:55:43;;;;;;;1.70;1.30;;;22.50;63.10;;;;;;5078032;28;20833;-68
2023/12/11 09:58:12;;;;;;;2.67;1.53;;;22.50;63.10;;;;;;5087921;28;20460;-68
2023/12/11 10:00:42;;;;;;;2.43;1.30;;;22.50;63.10;;;;;;5077380;28;20507;-67
2023/12/11 10:03:11;;;;;;;2.37;1.40;;;22.40;63.10;;;;;;5080799;28;20489;-67
2023/12/11 10:05:39;;;;;;;2.23;1.20;;;22.50;63.10;;;;;;5078474;28;20431;-66
2023/12/11 10:08:10;;;;;;;3.57;1.50;;;22.50;63.10;;;;;;5072944;28;20466;-68
2023/12/11 10:10:40;;;;;;;1.27;1.17;;;22.50;63.10;;;;;;5084230;28;20787;-66
2023/12/11 10:13:09;;;;;;;1.70;1.40;;;22.50;62.90;;;;;;5090131;28;20444;-65
2023/12/11 10:15:37;;;;;;;3.37;1.40;;;22.50;62.90;;;;;;5092028;28;20990;-66
2023/12/11 10:18:08;;;;;;;1.40;1.30;;;22.50;62.90;;;;;;5075338;28;20481;-66
2023/12/11 10:20:38;;;;;;;2.40;1.27;;;22.50;62.80;;;;;;5075503;28;20458;-66
2023/12/11 10:23:17;;;;;;;3.50;1.30;;;22.50;62.80;;;;;;5078458;28;20461;-67
2023/12/11 10:25:49;;;;;;;2.63;1.10;;;22.60;62.80;;;;;;5082680;28;20444;-68
2023/12/11 10:28:19;;;;;;;1.50;1.03;;;22.60;62.80;;;;;;5082943;28;21148;-67
2023/12/11 10:30:53;;;;;;;2.37;1.27;;;22.60;62.70;;;;;;5073434;28;20462;-67
2023/12/11 10:33:23;;;;;;;1.60;1.20;;;22.70;62.60;;;;;;5072995;28;20440;-68
2023/12/11 10:35:53;;;;;;;5.23;1.30;;;22.70;62.50;;;;;;5079453;28;21107;-68
2023/12/11 10:38:24;;;;;;;1.57;1.47;;;22.70;62.50;;;;;;5078671;28;20796;-69
2023/12/11 10:40:54;;;;;;;2.30;1.50;;;22.80;62.40;;;;;;5081348;28;20536;-68
2023/12/11 10:43:23;;;;;;;2.27;1.20;;;22.80;62.30;;;;;;5083480;28;20519;-70
2023/12/11 10:45:51;;;;;;;2.37;1.80;;;22.80;62.30;;;;;;5090435;28;20483;-70
2023/12/11 10:48:21;;;;;;;7.50;1.23;;;22.80;62.20;;;;;;5073718;28;20443;-66
2023/12/11 10:50:51;;;;;;;3.33;1.13;;;22.80;62.20;;;;;;5072780;28;20453;-67
2023/12/11 10:53:19;;;;;;;2.33;1.40;;;22.80;62.20;;;;;;5080426;28;20441;-67
2023/12/11 10:55:51;;;;;;;1.40;1.30;;;22.80;62.20;;;;;;5076413;28;20918;-69
2023/12/11 10:58:20;;;;;;;2.90;1.77;;;22.80;62.10;;;;;;5065057;28;20446;-67
2023/12/11 11:00:49;;;;;;;3.87;1.73;;;22.80;62.20;;;;;;5074928;28;20457;-67
2023/12/11 11:03:18;;;;;;;2.77;1.47;;;22.80;62.10;;;;;;5077720;28;20485;-66
2023/12/11 11:05:52;;;;;;;1.80;1.10;;;22.70;62.10;;;;;;5083935;28;20459;-66
2023/12/11 11:08:29;;;;;;;2.03;1.30;;;22.70;62.10;;;;;;5076390;28;20453;-66
2023/12/11 11:11:05;;;;;;;1.50;1.37;;;22.70;62.10;;;;;;5074902;28;20883;-67
2023/12/11 11:13:39;;;;;;;2.00;1.07;;;22.70;62.10;;;;;;5069885;28;20544;-69
2023/12/11 11:16:07;;;;;;;2.10;1.20;;;22.70;62.10;;;;;;5079322;28;20460;-72
2023/12/11 11:19:06;;;;;;;1.10;1.00;;;22.70;62.10;;;;;;5071160;28;20446;-75
2023/12/11 11:21:37;;;;;;;1.20;1.07;;;22.70;62.10;;;;;;5071898;28;20445;-77
2023/12/11 11:24:25;;;;;;;1.10;1.00;;;22.70;61.90;;;;;;5071932;28;20468;-78
2023/12/11 11:26:55;;;;;;;1.37;1.00;;;22.70;61.90;;;;;;5065165;28;20462;-74
2023/12/11 11:29:39;;;;;;;2.10;1.40;;;22.60;61.70;;;;;;5075863;28;20938;-74
2023/12/11 11:32:08;;;;;;;1.60;1.17;;;22.60;61.80;;;;;;5073263;28;20933;-74
2023/12/11 11:34:44;;;;;;;2.50;1.60;;;22.60;61.80;;;;;;5072127;28;20500;-76
2023/12/11 11:37:17;;;;;;;1.27;1.17;;;22.50;61.80;;;;;;5057540;28;20455;-78
2023/12/11 11:39:57;;;;;;;1.93;1.20;;;22.50;61.80;;;;;;5075806;28;20962;-80
2023/12/11 11:42:28;;;;;;;1.43;1.30;;;22.50;61.80;;;;;;5073632;28;20449;-76
2023/12/11 11:44:57;;;;;;;1.97;1.53;;;22.50;61.80;;;;;;5070627;28;20466;-76
2023/12/11 11:47:25;;;;;;;2.20;1.40;;;22.60;61.80;;;;;;5074252;28;20438;-77
2023/12/11 11:49:54;;;;;;;1.53;1.30;;;22.50;62.00;;;;;;5071930;28;20605;-76
2023/12/11 11:52:27;;;;;;;1.13;1.03;;;22.60;61.60;;;;;;5084051;28;20533;-75
2023/12/11 11:55:03;;;;;;;3.37;1.37;;;22.60;61.40;;;;;;5077449;28;20816;-76
2023/12/11 11:57:33;;;;;;;5.07;1.13;;;22.60;61.30;;;;;;5080507;28;20442;-78
2023/12/11 12:00:02;;;;;;;1.57;1.13;;;22.70;61.20;;;;;;5072045;28;20454;-80
2023/12/11 12:02:32;;;;;;;2.20;0.77;;;22.70;61.20;;;;;;5073933;28;20456;-76
2023/12/11 12:05:07;;;;;;;1.20;1.07;;;22.70;61.10;;;;;;5029132;28;20469;-75
2023/12/11 12:07:39;;;;;;;1.30;1.13;;;22.70;61.00;;;;;;5028503;28;20466;-75
2023/12/11 12:10:12;;;;;;;1.00;1.00;;;22.70;61.00;;;;;;5026593;28;20460;-75
2023/12/11 12:12:42;;;;;;;1.20;0.97;;;22.70;61.00;;;;;;5028159;28;20543;-74
2023/12/11 12:15:11;;;;;;;1.60;0.90;;;22.60;60.90;;;;;;5028081;28;20952;-76
2023/12/11 12:17:39;;;;;;;0.93;0.90;;;22.60;61.00;;;;;;5028207;28;21002;-77
2023/12/11 12:20:12;;;;;;;1.53;1.37;;;22.60;61.00;;;;;;5028978;28;20448;-77
2023/12/11 12:22:57;;;;;;;1.47;0.90;;;22.50;61.00;;;;;;5026175;28;20521;-79
2023/12/11 12:25:27;;;;;;;1.73;0.93;;;22.60;61.00;;;;;;5028377;28;20474;-76
2023/12/11 12:28:03;;;;;;;1.17;1.07;;;22.50;61.00;;;;;;5042181;28;20944;-76
2023/12/11 12:30:32;;;;;;;1.80;1.00;;;22.50;61.00;;;;;;5028531;28;21017;-81
2023/12/11 12:33:02;;;;;;;1.57;1.03;;;22.50;61.00;;;;;;5024613;28;20467;-76
2023/12/11 12:35:32;;;;;;;1.30;0.90;;;22.50;61.00;;;;;;5028658;28;20459;-78
2023/12/11 12:38:02;;;;;;;0.80;0.80;;;22.50;61.00;;;;;;5025963;28;20476;-81
2023/12/11 12:40:33;;;;;;;2.37;0.93;;;22.50;61.00;;;;;;5030864;28;20454;-77
2023/12/11 12:43:10;;;;;;;1.07;1.00;;;22.50;61.00;;;;;;5030908;28;20460;-78
2023/12/11 12:45:39;;;;;;;1.27;1.03;;;22.40;61.00;;;;;;5032895;28;20472;-78
2023/12/11 12:48:09;;;;;;;1.30;1.20;;;22.40;61.00;;;;;;5030969;28;20521;-79
2023/12/11 12:50:38;;;;;;;1.07;0.80;;;22.40;61.00;;;;;;5031600;28;20460;-78
2023/12/11 12:53:07;;;;;;;0.80;0.80;;;22.40;61.00;;;;;;5031636;28;20571;-76
2023/12/11 12:55:37;;;;;;;1.10;0.90;;;22.40;61.00;;;;;;5025799;28;20577;-77
2023/12/11 12:58:07;;;;;;;0.80;0.80;;;22.40;61.00;;;;;;5022880;28;20471;-77